Time;durP1;ratioP1;P1;durP2;ratioP2;P2;SDS_P1;SDS_P2;PMS_P1;PMS_P2;Temp;Humidity;BMP_temperature;BMP_pressure;BME280_temperature;BME280_humidity;BME280_pressure;Samples;Min_cycle;Max_cycle;Signal;HPM_P1;HPM_P2
2020/12/22 00:04:17;;;;;;;9.40;6.07;;;;;;;7.02;100.00;98014.89;3676041;80;43494;-20
2020/12/22 00:09:23;;;;;;;8.17;5.70;;;;;;;7.10;100.00;98000.77;3680242;79;44099;-20
2020/12/22 00:14:29;;;;;;;8.73;6.23;;;;;;;7.14;100.00;97996.80;3713399;78;44067;-20
2020/12/22 00:19:36;;;;;;;6.93;5.53;;;;;;;7.18;100.00;97999.50;3759917;77;43330;-20
2020/12/22 00:24:42;;;;;;;8.30;5.13;;;;;;;7.18;100.00;97993.32;3749737;79;43342;-20
2020/12/22 00:29:48;;;;;;;6.83;5.22;;;;;;;7.15;100.00;97969.02;3760309;77;69588;-20
2020/12/22 00:34:54;;;;;;;6.93;4.93;;;;;;;7.16;100.00;97954.64;3750020;78;44041;-19
2020/12/22 00:40:00;;;;;;;8.80;5.77;;;;;;;7.14;100.00;97958.44;3761861;77;43370;-19
2020/12/22 00:45:07;;;;;;;5.63;4.57;;;;;;;7.15;100.00;97966.34;3749943;79;43251;-20
2020/12/22 00:50:13;;;;;;;6.03;4.90;;;;;;;7.11;100.00;97961.44;3745131;77;42698;-20
2020/12/22 00:55:19;;;;;;;6.23;4.53;;;;;;;7.05;100.00;97942.28;3750203;79;43136;-20
2020/12/22 01:00:26;;;;;;;5.50;3.80;;;;;;;7.05;100.00;97939.61;3751759;77;26434;-20
2020/12/22 01:05:32;;;;;;;5.77;4.33;;;;;;;7.08;100.00;97952.70;3750305;79;44140;-20
2020/12/22 01:10:38;;;;;;;6.40;4.50;;;;;;;7.07;100.00;97936.28;3751280;77;43353;-20
2020/12/22 01:15:44;;;;;;;5.40;4.27;;;;;;;7.06;100.00;97922.55;3758453;78;44018;-20
2020/12/22 01:20:50;;;;;;;5.73;3.80;;;;;;;7.12;100.00;97933.63;3768419;77;44375;-20
2020/12/22 01:25:56;;;;;;;4.70;3.50;;;;;;;7.07;100.00;97920.70;3763169;79;44464;-20
2020/12/22 01:31:02;;;;;;;4.20;3.43;;;;;;;7.04;100.00;97923.70;3774114;77;44067;-20
2020/12/22 01:36:09;;;;;;;3.53;3.13;;;;;;;7.08;100.00;97913.87;3762809;78;44070;-20
2020/12/22 01:41:15;;;;;;;3.83;2.47;;;;;;;7.07;100.00;97910.84;3775775;77;43662;-20
2020/12/22 01:46:22;;;;;;;2.73;2.40;;;;;;;7.11;100.00;97909.20;3762900;79;43677;-20
2020/12/22 01:51:31;;;;;;;3.03;2.27;;;;;;;7.15;100.00;97907.89;3765199;77;43813;-20
2020/12/22 01:56:38;;;;;;;2.90;2.37;;;;;;;7.24;100.00;97893.57;3762723;79;44011;-20
2020/12/22 02:01:44;;;;;;;2.47;2.17;;;;;;;7.28;100.00;97884.24;3765195;77;44601;-20
2020/12/22 02:06:50;;;;;;;1.60;1.40;;;;;;;7.38;100.00;97872.94;3765077;78;43420;-20
2020/12/22 02:11:56;;;;;;;1.70;1.50;;;;;;;7.40;100.00;97886.20;3765629;77;43259;-20
2020/12/22 02:17:02;;;;;;;1.43;1.33;;;;;;;7.43;100.00;97878.34;3752336;78;44459;-18
2020/12/22 02:22:07;;;;;;;1.63;1.10;;;;;;;7.43;100.00;97868.45;3755138;77;43342;-18
2020/12/22 02:27:13;;;;;;;1.57;1.13;;;;;;;7.48;100.00;97862.62;3749936;79;43720;-18
2020/12/22 02:32:19;;;;;;;1.13;1.00;;;;;;;7.61;100.00;97842.95;3758190;77;73249;-18
2020/12/22 02:37:25;;;;;;;0.80;0.80;;;;;;;7.65;100.00;97855.06;3750691;77;44080;-18
2020/12/22 02:42:31;;;;;;;1.00;0.90;;;;;;;7.68;100.00;97861.94;3763157;77;73233;-18
2020/12/22 02:47:37;;;;;;;0.70;0.70;;;;;;;7.74;100.00;97850.60;3750213;78;44645;-18
2020/12/22 02:52:42;;;;;;;1.20;0.90;;;;;;;7.77;100.00;97843.56;3748871;78;43171;-18
2020/12/22 02:57:48;;;;;;;0.87;0.67;;;;;;;7.75;100.00;97837.55;3750156;79;44519;-18
2020/12/22 03:02:54;;;;;;;0.53;0.50;;;;;;;7.75;100.00;97834.00;3751933;77;44531;-19
2020/12/22 03:08:00;;;;;;;0.60;0.50;;;;;;;7.90;100.00;97823.05;3753071;77;43943;-19
2020/12/22 03:13:07;;;;;;;0.50;0.50;;;;;;;7.95;100.00;97815.34;3752376;77;44066;-18
2020/12/22 03:18:13;;;;;;;0.50;0.50;;;;;;;7.99;100.00;97801.14;3691732;79;44053;-18
2020/12/22 03:23:19;;;;;;;0.60;0.50;;;;;;;8.06;100.00;97803.51;3683838;79;43678;-18
2020/12/22 03:28:25;;;;;;;0.40;0.40;;;;;;;8.05;100.00;97803.16;3689699;79;42945;-18
2020/12/22 03:33:30;;;;;;;0.40;0.40;;;;;;;8.07;100.00;97793.12;3681867;79;73560;-18
2020/12/22 03:38:36;;;;;;;0.40;0.40;;;;;;;8.13;100.00;97795.66;3682749;79;44024;-18
2020/12/22 03:43:42;;;;;;;0.50;0.40;;;;;;;8.18;100.00;97797.34;3683238;80;43360;-18
2020/12/22 03:48:48;;;;;;;0.43;0.43;;;;;;;8.17;100.00;97782.27;3682015;80;44143;-18
2020/12/22 03:53:54;;;;;;;0.47;0.47;;;;;;;8.17;100.00;97790.32;3672462;80;43161;-18
2020/12/22 03:59:00;;;;;;;0.43;0.40;;;;;;;8.18;100.00;97793.31;3673918;79;44117;-18
2020/12/22 04:04:05;;;;;;;0.40;0.40;;;;;;;8.25;100.00;97802.41;3681420;80;44105;-18
2020/12/22 04:09:11;;;;;;;0.80;0.40;;;;;;;8.29;100.00;97798.39;3686349;79;44027;-18
2020/12/22 04:14:18;;;;;;;0.40;0.40;;;;;;;8.31;100.00;97779.45;3678669;78;44121;-18
2020/12/22 04:19:24;;;;;;;0.40;0.40;;;;;;;8.36;100.00;97748.93;3679566;79;73308;-18
2020/12/22 04:24:29;;;;;;;1.00;0.70;;;;;;;8.37;100.00;97738.53;3679553;79;43964;-18
2020/12/22 04:29:35;;;;;;;0.40;0.30;;;;;;;8.37;100.00;97745.76;3671898;79;44071;-19
2020/12/22 04:34:41;;;;;;;1.07;0.30;;;;;;;8.36;100.00;97762.86;3702161;79;44066;-18
2020/12/22 04:39:47;;;;;;;0.30;0.30;;;;;;;8.54;100.00;97750.69;3743520;77;44015;-18
2020/12/22 04:44:54;;;;;;;0.30;0.30;;;;;;;8.73;100.00;97754.92;3746215;77;44077;-18
2020/12/22 04:50:03;;;;;;;0.30;0.30;;;;;;;8.79;100.00;97769.87;3740805;78;43703;-18
2020/12/22 04:55:09;;;;;;;0.30;0.30;;;;;;;8.75;100.00;97758.28;3750949;78;44007;-18
2020/12/22 05:00:15;;;;;;;0.50;0.30;;;;;;;8.78;100.00;97764.64;3739940;77;73215;-18
2020/12/22 05:05:22;;;;;;;0.93;0.40;;;;;;;8.81;100.00;97750.89;3751175;79;43679;-18
2020/12/22 05:10:29;;;;;;;0.50;0.40;;;;;;;8.82;100.00;97752.58;3752463;77;43360;-18
2020/12/22 05:15:35;;;;;;;0.40;0.40;;;;;;;8.86;100.00;97760.64;3754281;77;43970;-19
2020/12/22 05:20:42;;;;;;;0.30;0.30;;;;;;;8.83;100.00;97756.94;3703409;79;43936;-17
2020/12/22 05:25:52;;;;;;;0.43;0.30;;;;;;;8.98;100.00;97726.22;3754297;77;26477;-17
2020/12/22 05:30:59;;;;;;;0.20;0.20;;;;;;;8.99;100.00;97750.73;3700279;79;73626;-18
2020/12/22 05:36:07;;;;;;;0.30;0.30;;;;;;;9.01;100.00;97730.41;3749247;77;44092;-18
2020/12/22 05:41:13;;;;;;;0.57;0.30;;;;;;;9.06;100.00;97749.56;3758475;77;43677;-18
2020/12/22 05:46:20;;;;;;;0.30;0.30;;;;;;;9.09;100.00;97753.27;3698222;79;44097;-18
2020/12/22 05:51:27;;;;;;;1.00;0.37;;;;;;;9.15;100.00;97743.17;3748048;77;44148;-19
2020/12/22 05:56:34;;;;;;;0.45;0.30;;;;;;;9.13;100.00;97730.40;3748119;79;43415;-18
2020/12/22 06:01:41;;;;;;;0.30;0.30;;;;;;;9.13;100.00;97730.91;3747502;77;43448;-18
2020/12/22 06:06:47;;;;;;;0.80;0.30;;;;;;;9.12;100.00;97736.78;3700737;78;73264;-17
2020/12/22 06:11:57;;;;;;;0.47;0.30;;;;;;;9.16;100.00;97734.62;3748692;77;43004;-18
2020/12/22 06:17:11;;;;;;;2.50;0.50;;;;;;;9.13;100.00;97719.65;3663417;79;43690;-18
2020/12/22 06:22:19;;;;;;;0.40;0.20;;;;;;;9.15;100.00;97723.02;3553798;82;43621;-18
2020/12/22 06:27:33;;;;;;;0.50;0.30;;;;;;;9.25;100.00;97714.27;3589349;82;43422;-18
2020/12/22 06:32:38;;;;;;;0.30;0.30;;;;;;;9.34;100.00;97712.92;3551329;82;43753;-18
2020/12/22 06:37:47;;;;;;;0.30;0.30;;;;;;;9.39;100.00;97712.75;3622443;80;43389;-19
2020/12/22 06:42:52;;;;;;;0.85;0.30;;;;;;;9.49;100.00;97704.98;3609907;80;43145;-18
2020/12/22 06:47:59;;;;;;;0.20;0.20;;;;;;;9.53;100.00;97709.84;3659498;80;43375;-18
2020/12/22 06:53:06;;;;;;;0.30;0.30;;;;;;;9.61;100.00;97721.09;3604260;80;44036;-19
2020/12/22 06:58:13;;;;;;;0.63;0.30;;;;;;;9.62;100.00;97728.64;3662274;80;43729;-18
2020/12/22 07:03:22;;;;;;;1.12;0.37;;;;;;;9.68;100.00;97714.00;3608703;80;44141;-18
2020/12/22 07:08:29;;;;;;;0.28;0.28;;;;;;;9.77;100.00;97723.38;3682775;79;42844;-18
2020/12/22 07:13:35;;;;;;;0.37;0.30;;;;;;;9.85;100.00;97716.13;3676769;80;44278;-18
2020/12/22 07:18:43;;;;;;;0.30;0.30;;;;;;;9.94;100.00;97737.60;3682154;78;44042;-18
2020/12/22 07:23:51;;;;;;;1.20;0.30;;;;;;;10.07;100.00;97735.20;3684565;79;43481;-18
2020/12/22 07:28:58;;;;;;;0.50;0.40;;;;;;;10.18;100.00;97742.88;3672806;79;43713;-18
2020/12/22 07:34:06;;;;;;;0.33;0.30;;;;;;;10.23;100.00;97741.53;3669245;80;43682;-18
2020/12/22 07:39:17;;;;;;;0.55;0.50;;;;;;;10.32;100.00;97747.20;3664915;79;43686;-18
2020/12/22 07:44:24;;;;;;;0.35;0.35;;;;;;;10.52;100.00;97761.61;3678144;80;44168;-18
2020/12/22 07:49:30;;;;;;;0.60;0.50;;;;;;;10.63;100.00;97753.95;3669664;80;44065;-18
2020/12/22 07:54:36;;;;;;;0.60;0.40;;;;;;;10.68;100.00;97773.62;3677694;80;43678;-18
2020/12/22 07:59:43;;;;;;;0.30;0.30;;;;;;;10.81;100.00;97772.19;3680606;79;42990;-19
2020/12/22 08:04:49;;;;;;;0.62;0.50;;;;;;;10.91;100.00;97782.22;3678685;80;44083;-18
2020/12/22 08:09:55;;;;;;;0.60;0.40;;;;;;;11.04;100.00;97786.52;3675177;79;43386;-18
2020/12/22 08:15:01;;;;;;;0.30;0.30;;;;;;;11.09;100.00;97794.91;3677285;80;43305;-18
2020/12/22 08:20:08;;;;;;;0.60;0.20;;;;;;;11.09;100.00;97789.52;3725947;77;43330;-18
2020/12/22 08:25:15;;;;;;;0.30;0.30;;;;;;;11.07;100.00;97798.28;3751103;77;43308;-18
2020/12/22 08:30:23;;;;;;;0.40;0.37;;;;;;;11.16;100.00;97803.12;3748987;77;44017;-18
2020/12/22 08:35:29;;;;;;;0.37;0.37;;;;;;;11.28;100.00;97789.20;3750427;79;44071;-19
2020/12/22 08:40:36;;;;;;;0.30;0.30;;;;;;;11.34;100.00;97804.16;3751911;77;43734;-18
2020/12/22 08:45:44;;;;;;;0.55;0.42;;;;;;;11.45;100.00;97810.95;3742191;79;44006;-19
2020/12/22 08:50:51;;;;;;;0.68;0.30;;;;;;;11.47;100.00;97819.70;3750143;78;43858;-19
2020/12/22 08:56:08;;;;;;;0.30;0.30;;;;;;;11.57;100.00;97807.32;3753293;77;44122;-19
2020/12/22 09:01:22;;;;;;;0.40;0.40;;;;;;;11.56;100.00;97828.58;3759620;77;73730;-19
2020/12/22 09:06:39;;;;;;;0.45;0.45;;;;;;;11.57;100.00;97811.37;3750550;79;43945;-18
2020/12/22 09:11:47;;;;;;;0.40;0.30;;;;;;;11.60;100.00;97815.55;3758784;77;43722;-18
2020/12/22 09:16:55;;;;;;;1.50;0.53;;;;;;;11.67;100.00;97824.08;3743826;77;43714;-19
2020/12/22 09:22:02;;;;;;;0.55;0.40;;;;;;;11.70;100.00;97842.59;3771521;77;43986;-18
2020/12/22 09:27:10;;;;;;;0.40;0.30;;;;;;;11.72;100.00;97828.41;3763976;79;44537;-18
2020/12/22 09:32:16;;;;;;;0.40;0.40;;;;;;;11.75;100.00;97840.72;3774570;77;43983;-19
2020/12/22 09:37:24;;;;;;;1.10;0.50;;;;;;;11.89;100.00;97833.66;3763806;78;44076;-18
2020/12/22 09:42:30;;;;;;;0.40;0.40;;;;;;;11.96;100.00;97834.58;3772243;77;43363;-19
2020/12/22 09:47:36;;;;;;;0.35;0.35;;;;;;;12.07;100.00;97829.77;3764149;77;43741;-18
2020/12/22 09:52:42;;;;;;;1.47;0.30;;;;;;;12.15;100.00;97833.75;3761135;77;43615;-17
2020/12/22 09:57:48;;;;;;;0.30;0.30;;;;;;;12.24;100.00;97831.28;3764265;78;44009;-18
2020/12/22 10:02:55;;;;;;;0.40;0.40;;;;;;;12.31;100.00;97864.61;3760705;77;43476;-18
2020/12/22 10:08:00;;;;;;;0.35;0.30;;;;;;;12.44;100.00;97850.96;3764657;77;43999;-18
2020/12/22 10:13:06;;;;;;;0.35;0.35;;;;;;;12.61;100.00;97864.61;3757336;78;43943;-18
2020/12/22 10:18:12;;;;;;;0.62;0.30;;;;;;;12.59;100.00;97850.94;3757598;79;43966;-18
2020/12/22 10:23:18;;;;;;;0.30;0.30;;;;;;;12.69;100.00;97860.12;3675910;79;42092;-17
2020/12/22 10:28:25;;;;;;;0.30;0.30;;;;;;;12.77;100.00;97857.30;3688546;79;43762;-18
2020/12/22 10:33:31;;;;;;;0.40;0.40;;;;;;;12.87;100.00;97849.75;3681421;80;43541;-17
2020/12/22 10:38:37;;;;;;;0.35;0.30;;;;;;;13.01;100.00;97853.94;3692837;79;44059;-18
2020/12/22 10:43:44;;;;;;;0.30;0.30;;;;;;;12.98;100.00;97871.91;3673557;80;43988;-17
2020/12/22 10:48:50;;;;;;;0.30;0.30;;;;;;;13.04;100.00;97870.64;3682358;79;43682;-19
2020/12/22 10:53:56;;;;;;;0.30;0.30;;;;;;;13.05;100.00;97871.46;3677801;79;43392;-17
2020/12/22 10:59:03;;;;;;;0.30;0.30;;;;;;;12.99;100.00;97889.28;3691135;79;43492;-17
2020/12/22 11:04:10;;;;;;;0.30;0.30;;;;;;;12.99;100.00;97888.46;3675355;79;43482;-17
2020/12/22 11:09:16;;;;;;;0.40;0.40;;;;;;;13.12;100.00;97889.94;3688735;79;43082;-18
2020/12/22 11:14:24;;;;;;;0.50;0.37;;;;;;;13.09;100.00;97887.64;3676725;80;42831;-18
2020/12/22 11:19:30;;;;;;;0.50;0.42;;;;;;;13.06;100.00;97902.36;3699451;77;44068;-18
2020/12/22 11:24:37;;;;;;;0.65;0.40;;;;;;;13.02;100.00;97890.77;3681925;79;43950;-18
2020/12/22 11:29:43;;;;;;;0.30;0.30;;;;;;;13.04;100.00;97886.01;3696288;79;43718;-18
2020/12/22 11:34:50;;;;;;;0.88;0.30;;;;;;;13.11;100.00;97901.81;3687139;79;43366;-18
2020/12/22 11:39:56;;;;;;;0.40;0.30;;;;;;;13.07;100.00;97914.86;3696328;79;43477;-18
2020/12/22 11:45:02;;;;;;;0.35;0.33;;;;;;;13.12;100.00;97899.41;3684980;79;44070;-18
2020/12/22 11:50:08;;;;;;;1.47;0.30;;;;;;;13.28;100.00;97900.20;3676316;79;43986;-19
2020/12/22 11:55:14;;;;;;;0.53;0.30;;;;;;;13.26;100.00;97921.52;3673622;80;44047;-18
2020/12/22 12:00:20;;;;;;;0.30;0.30;;;;;;;13.25;100.00;97907.67;3681476;79;43781;-18
2020/12/22 12:05:27;;;;;;;0.20;0.20;;;;;;;13.22;100.00;97913.98;3681961;79;43719;-18
2020/12/22 12:10:33;;;;;;;0.30;0.30;;;;;;;13.15;100.00;97915.27;3681812;79;44089;-19
2020/12/22 12:15:39;;;;;;;0.50;0.30;;;;;;;13.22;100.00;97910.78;3682729;79;43682;-18
2020/12/22 12:20:46;;;;;;;0.30;0.28;;;;;;;13.28;100.00;97905.62;3708793;79;43709;-18
2020/12/22 12:25:53;;;;;;;0.40;0.40;;;;;;;13.32;100.00;97914.52;3750293;79;43506;-18
2020/12/22 12:30:58;;;;;;;0.20;0.20;;;;;;;13.35;100.00;97911.92;3759555;77;44031;-18
2020/12/22 12:36:05;;;;;;;0.80;0.37;;;;;;;13.51;100.00;97902.25;3751040;77;43689;-18
2020/12/22 12:41:12;;;;;;;0.20;0.20;;;;;;;13.65;100.00;97905.09;3760188;77;43303;-18
2020/12/22 12:46:19;;;;;;;0.40;0.30;;;;;;;13.67;100.00;97906.56;3762722;77;44010;-19
2020/12/22 12:51:30;;;;;;;0.80;0.42;;;;;;;13.62;100.00;97904.97;3746390;77;43692;-17
2020/12/22 12:56:35;;;;;;;0.37;0.30;;;;;;;13.66;100.00;97906.77;3756825;77;42317;-17
2020/12/22 13:01:41;;;;;;;0.42;0.42;;;;;;;13.84;100.00;97907.13;3754445;77;44933;-17
2020/12/22 13:06:50;;;;;;;0.45;0.30;;;;;;;13.94;100.00;97910.88;3765338;77;44207;-17
2020/12/22 13:11:56;;;;;;;0.50;0.40;;;;;;;13.82;100.00;97917.31;3756740;77;43674;-18
2020/12/22 13:17:03;;;;;;;0.35;0.35;;;;;;;13.79;100.00;97920.44;3752854;77;44384;-17
2020/12/22 13:22:10;;;;;;;0.72;0.40;;;;;;;13.64;100.00;97916.95;3729536;77;43924;-18
2020/12/22 13:27:16;;;;;;;0.90;0.30;;;;;;;13.38;100.00;97946.72;3707083;78;42975;-17
2020/12/22 13:32:22;;;;;;;0.30;0.23;;;;;;;13.25;100.00;97955.54;3655541;80;44055;-17
2020/12/22 13:37:29;;;;;;;0.50;0.40;;;;;;;13.30;100.00;97943.61;3696845;79;44018;-17
2020/12/22 13:42:37;;;;;;;0.68;0.40;;;;;;;13.53;100.00;97949.41;3713818;78;43686;-18
2020/12/22 13:47:46;;;;;;;0.57;0.30;;;;;;;13.74;100.00;97945.06;3660100;80;43411;-17
2020/12/22 13:52:53;;;;;;;0.75;0.42;;;;;;;13.63;100.00;97953.16;3699330;78;44018;-18
2020/12/22 13:57:58;;;;;;;1.05;0.30;;;;;;;13.68;100.00;97947.49;3641356;80;43455;-18
2020/12/22 14:03:04;;;;;;;0.30;0.30;;;;;;;13.90;100.00;97956.14;3685024;78;44718;-18
2020/12/22 14:08:11;;;;;;;0.78;0.35;;;;;;;13.98;100.00;97972.24;3704646;78;43120;-18
2020/12/22 14:13:17;;;;;;;0.57;0.40;;;;;;;14.10;100.00;97974.75;3681088;79;44098;-18
2020/12/22 14:18:23;;;;;;;1.77;0.40;;;;;;;13.95;100.00;97972.63;3708459;78;43382;-19
2020/12/22 14:23:29;;;;;;;1.50;0.40;;;;;;;13.90;100.00;97996.75;3649456;79;43379;-19
2020/12/22 14:28:35;;;;;;;0.65;0.40;;;;;;;13.74;100.00;98004.62;3634251;80;44740;-18
2020/12/22 14:33:41;;;;;;;0.25;0.25;;;;;;;13.59;100.00;98005.50;3633809;81;44008;-18
2020/12/22 14:38:48;;;;;;;0.60;0.35;;;;;;;13.58;100.00;98026.00;3670884;79;43669;-18
2020/12/22 14:43:56;;;;;;;0.70;0.40;;;;;;;13.50;100.00;98013.41;3667337;79;43341;-18
2020/12/22 14:49:02;;;;;;;1.05;0.50;;;;;;;13.40;100.00;98045.67;3659193;78;44172;-18
2020/12/22 14:54:08;;;;;;;0.82;0.50;;;;;;;13.30;100.00;98048.30;3662990;79;44902;-18
2020/12/22 14:59:14;;;;;;;2.33;0.50;;;;;;;13.25;100.00;98056.45;3688031;79;43300;-19
2020/12/22 15:04:21;;;;;;;0.85;0.60;;;;;;;13.16;100.00;98045.41;3731646;78;44401;-18
2020/12/22 15:09:28;;;;;;;1.22;0.45;;;;;;;13.01;100.00;98040.51;3730013;78;43378;-18
2020/12/22 15:14:37;;;;;;;1.32;0.50;;;;;;;12.87;100.00;98056.56;3737017;77;43437;-18
2020/12/22 15:19:43;;;;;;;0.90;0.50;;;;;;;12.87;100.00;98068.73;3723780;78;44433;-18
2020/12/22 15:24:52;;;;;;;1.32;0.50;;;;;;;12.74;100.00;98063.12;3676308;79;44108;-18
2020/12/22 15:30:02;;;;;;;0.62;0.47;;;;;;;12.56;100.00;98068.33;3680454;79;44069;-18
2020/12/22 15:35:08;;;;;;;1.10;0.60;;;;;;;12.41;100.00;98076.90;3679912;80;43967;-23
2020/12/22 15:40:14;;;;;;;1.67;0.65;;;;;;;12.26;100.00;98081.77;3689597;79;44095;-18
2020/12/22 15:45:20;;;;;;;0.88;0.70;;;;;;;12.22;100.00;98093.94;3680334;80;44166;-18
2020/12/22 15:50:27;;;;;;;1.12;0.80;;;;;;;12.25;100.00;98096.29;3677679;79;44061;-18
2020/12/22 15:55:33;;;;;;;1.45;0.60;;;;;;;12.21;100.00;98096.83;3678874;79;44926;-19
2020/12/22 16:00:40;;;;;;;0.40;0.40;;;;;;;12.06;100.00;98104.84;3686249;79;44589;-18
2020/12/22 16:05:48;;;;;;;0.60;0.50;;;;;;;12.08;100.00;98112.26;3678949;79;44080;-18
2020/12/22 16:10:55;;;;;;;1.10;0.57;;;;;;;11.98;100.00;98116.03;3685899;79;43964;-18
2020/12/22 16:16:01;;;;;;;0.37;0.37;;;;;;;11.91;100.00;98119.09;3674084;79;44188;-18
2020/12/22 16:21:09;;;;;;;0.70;0.50;;;;;;;11.79;100.00;98119.16;3677799;79;43710;-18
2020/12/22 16:26:16;;;;;;;0.70;0.40;;;;;;;11.66;100.00;98123.75;3678147;79;43724;-18
2020/12/22 16:31:23;;;;;;;1.15;0.40;;;;;;;11.75;100.00;98136.70;3691628;79;43758;-18
2020/12/22 16:36:29;;;;;;;1.95;0.55;;;;;;;11.87;100.00;98144.25;3678337;79;44041;-18
2020/12/22 16:41:35;;;;;;;0.45;0.45;;;;;;;11.98;100.00;98136.28;3689485;79;44081;-19
2020/12/22 16:46:42;;;;;;;1.72;0.60;;;;;;;11.97;100.00;98132.39;3679272;79;43690;-19
2020/12/22 16:51:54;;;;;;;0.40;0.40;;;;;;;12.01;100.00;98127.84;3675659;80;73317;-19
2020/12/22 16:57:00;;;;;;;0.70;0.50;;;;;;;12.12;100.00;98117.12;3678086;80;44046;-19
2020/12/22 17:02:06;;;;;;;2.33;0.70;;;;;;;12.07;100.00;98126.77;3679129;79;43694;-17
2020/12/22 17:07:13;;;;;;;0.82;0.50;;;;;;;11.99;100.00;98135.79;3678990;79;44064;-17
2020/12/22 17:12:18;;;;;;;1.12;0.55;;;;;;;12.01;100.00;98143.17;3687253;79;43810;-17
2020/12/22 17:17:24;;;;;;;1.12;0.70;;;;;;;12.05;100.00;98135.06;3682300;80;43151;-17
2020/12/22 17:22:30;;;;;;;1.70;0.60;;;;;;;12.09;100.00;98124.73;3692038;78;44058;-17
2020/12/22 17:27:36;;;;;;;1.87;0.75;;;;;;;12.10;100.00;98124.58;3677838;80;43443;-17
2020/12/22 17:32:43;;;;;;;1.22;0.70;;;;;;;12.17;100.00;98138.21;3690243;77;43712;-18
2020/12/22 17:37:49;;;;;;;1.15;0.60;;;;;;;12.18;100.00;98135.81;3681815;79;44084;-17
2020/12/22 17:42:55;;;;;;;1.47;0.70;;;;;;;12.22;100.00;98145.78;3694818;79;44046;-17
2020/12/22 17:48:01;;;;;;;2.95;0.80;;;;;;;12.23;100.00;98142.89;3677661;80;43755;-18
2020/12/22 17:53:07;;;;;;;0.98;0.70;;;;;;;12.21;100.00;98148.97;3674845;80;43588;-18
2020/12/22 17:58:12;;;;;;;0.93;0.80;;;;;;;12.28;100.00;98157.20;3678542;79;44157;-18
2020/12/22 18:03:18;;;;;;;1.75;0.80;;;;;;;12.29;100.00;98157.53;3689106;79;44036;-18
2020/12/22 18:08:28;;;;;;;1.50;0.80;;;;;;;12.21;100.00;98160.30;3679437;79;43678;-18
2020/12/22 18:13:34;;;;;;;1.98;0.70;;;;;;;12.24;100.00;98155.38;3678703;79;43370;-18
2020/12/22 18:18:41;;;;;;;1.10;0.90;;;;;;;12.28;100.00;98173.41;3681049;79;44085;-18
2020/12/22 18:23:48;;;;;;;1.30;0.70;;;;;;;12.22;100.00;98167.38;3697735;79;44019;-18
2020/12/22 18:28:54;;;;;;;1.87;0.70;;;;;;;12.30;100.00;98166.80;3767495;77;43535;-18
2020/12/22 18:34:00;;;;;;;1.67;1.00;;;;;;;12.27;100.00;98156.87;3774319;77;44010;-19
2020/12/22 18:39:07;;;;;;;1.10;0.90;;;;;;;12.25;100.00;98155.70;3754089;77;43326;-19
2020/12/22 18:44:14;;;;;;;1.02;0.90;;;;;;;12.24;100.00;98156.72;3761804;77;43481;-18
2020/12/22 18:49:21;;;;;;;1.85;0.90;;;;;;;12.24;100.00;98151.81;3753495;77;43690;-18
2020/12/22 18:54:29;;;;;;;1.10;1.00;;;;;;;12.32;100.00;98162.59;3754601;77;44128;-19
2020/12/22 18:59:36;;;;;;;1.92;1.05;;;;;;;12.27;100.00;98163.62;3729280;76;44347;-18
2020/12/22 19:04:42;;;;;;;2.30;1.00;;;;;;;12.25;100.00;98162.45;3703253;78;43366;-19
2020/12/22 19:09:50;;;;;;;3.02;1.10;;;;;;;12.24;100.00;98165.31;3700621;78;43467;-23
2020/12/22 19:15:01;;;;;;;0.98;0.88;;;;;;;12.24;100.00;98172.93;3705213;78;42972;-20
2020/12/22 19:20:07;;;;;;;1.82;1.17;;;;;;;12.20;100.00;98181.05;3710941;78;44031;-20
2020/12/22 19:25:14;;;;;;;2.42;1.30;;;;;;;12.27;100.00;98185.23;3705545;78;43690;-20
2020/12/22 19:30:21;;;;;;;2.05;1.62;;;;;;;12.24;100.00;98182.88;3635128;80;43993;-19
2020/12/22 19:35:28;;;;;;;2.92;1.12;;;;;;;12.20;100.00;98191.84;3632814;81;44493;-20
2020/12/22 19:40:34;;;;;;;1.95;1.20;;;;;;;12.20;100.00;98178.34;3635375;80;44475;-20
2020/12/22 19:45:41;;;;;;;2.20;1.12;;;;;;;12.15;100.00;98178.05;3697057;78;43998;-19
2020/12/22 19:50:47;;;;;;;2.20;1.32;;;;;;;12.14;100.00;98173.14;3690570;78;43701;-20
2020/12/22 19:55:53;;;;;;;2.17;1.60;;;;;;;12.17;100.00;98176.02;3695195;80;43333;-20
2020/12/22 20:00:59;;;;;;;2.37;1.62;;;;;;;12.09;100.00;98176.91;3695507;79;44064;-19
2020/12/22 20:06:05;;;;;;;1.25;1.15;;;;;;;12.06;100.00;98185.34;3695259;79;43189;-20
2020/12/22 20:11:13;;;;;;;1.50;0.93;;;;;;;12.01;100.00;98191.28;3695082;79;44090;-20
2020/12/22 20:16:20;;;;;;;1.55;0.93;;;;;;;11.99;100.00;98188.44;3702381;78;43788;-19
2020/12/22 20:21:26;;;;;;;1.77;0.90;;;;;;;11.95;100.00;98190.59;3695936;79;43339;-19
2020/12/22 20:26:33;;;;;;;2.05;0.85;;;;;;;11.89;100.00;98185.91;3659401;80;43479;-20
2020/12/22 20:31:39;;;;;;;3.02;1.12;;;;;;;11.86;100.00;98181.70;3626404;80;43661;-19
2020/12/22 20:36:45;;;;;;;1.93;1.00;;;;;;;11.86;100.00;98177.66;3634310;81;43968;-20
2020/12/22 20:41:51;;;;;;;1.57;1.00;;;;;;;11.84;100.00;98185.09;3644279;79;44721;-20
2020/12/22 20:46:57;;;;;;;1.47;1.10;;;;;;;11.86;100.00;98184.90;3644671;80;43329;-19
2020/12/22 20:52:03;;;;;;;2.80;1.30;;;;;;;11.93;100.00;98187.25;3619122;81;44074;-19
2020/12/22 20:57:10;;;;;;;2.50;1.47;;;;;;;11.92;100.00;98184.21;3624466;81;43455;-19
2020/12/22 21:02:16;;;;;;;2.02;1.30;;;;;;;11.95;100.00;98192.46;3630176;80;43461;-20
2020/12/22 21:07:22;;;;;;;1.70;1.40;;;;;;;11.97;100.00;98183.16;3631165;81;44402;-20
2020/12/22 21:12:28;;;;;;;2.25;1.30;;;;;;;12.02;100.00;98170.51;3713699;79;43777;-20
2020/12/22 21:17:34;;;;;;;2.72;1.25;;;;;;;12.01;100.00;98172.38;3725405;79;44405;-19
2020/12/22 21:22:40;;;;;;;3.40;1.42;;;;;;;12.06;100.00;98166.94;3714997;77;44095;-19
2020/12/22 21:27:45;;;;;;;2.02;1.30;;;;;;;12.08;100.00;98168.96;3729259;78;44034;-20
2020/12/22 21:32:52;;;;;;;1.95;1.40;;;;;;;12.10;100.00;98156.13;3731006;78;43271;-20
2020/12/22 21:37:58;;;;;;;1.98;1.30;;;;;;;12.07;100.00;98164.58;3739850;78;44468;-19
2020/12/22 21:43:05;;;;;;;3.65;1.37;;;;;;;12.07;100.00;98174.02;3723472;78;43624;-19
2020/12/22 21:48:11;;;;;;;2.87;1.20;;;;;;;12.02;100.00;98191.62;3704144;78;43705;-19
2020/12/22 21:53:17;;;;;;;2.00;1.20;;;;;;;11.96;100.00;98190.09;3719212;78;44051;-19
2020/12/22 21:58:24;;;;;;;1.90;0.90;;;;;;;11.95;100.00;98195.98;3713578;78;43480;-19
2020/12/22 22:03:31;;;;;;;1.32;1.10;;;;;;;11.95;100.00;98214.06;3702772;78;43722;-20
2020/12/22 22:08:38;;;;;;;1.65;1.17;;;;;;;11.92;100.00;98223.36;3740241;77;43324;-19
2020/12/22 22:13:43;;;;;;;1.70;1.30;;;;;;;11.91;100.00;98227.56;3730471;78;42787;-21
2020/12/22 22:18:50;;;;;;;3.40;1.60;;;;;;;11.91;100.00;98217.63;3754086;77;43500;-19
2020/12/22 22:23:56;;;;;;;4.83;1.60;;;;;;;11.91;100.00;98215.41;3745004;78;44113;-19
2020/12/22 22:29:02;;;;;;;2.72;1.80;;;;;;;11.90;100.00;98207.84;3768277;77;43704;-20
2020/12/22 22:34:08;;;;;;;1.98;1.77;;;;;;;11.83;100.00;98201.44;3774548;78;44085;-19
2020/12/22 22:39:14;;;;;;;2.30;1.95;;;;;;;11.74;100.00;98199.30;3774959;77;44125;-19
2020/12/22 22:44:21;;;;;;;2.80;1.92;;;;;;;11.67;100.00;98195.59;3772865;77;43998;-19
2020/12/22 22:49:27;;;;;;;2.60;2.10;;;;;;;11.60;100.00;98188.70;3776758;77;44040;-19
2020/12/22 22:54:33;;;;;;;3.00;2.25;;;;;;;11.55;100.00;98189.75;3764172;78;44085;-20
2020/12/22 22:59:39;;;;;;;3.90;2.40;;;;;;;11.39;100.00;98163.14;3785189;76;43513;-20
2020/12/22 23:04:44;;;;;;;2.52;2.02;;;;;;;11.24;100.00;98167.06;3771956;78;44033;-20
2020/12/22 23:09:50;;;;;;;2.90;2.20;;;;;;;11.19;100.00;98168.59;3775959;78;44582;-20
2020/12/22 23:14:56;;;;;;;3.95;2.42;;;;;;;11.20;100.00;98163.54;3771730;77;44511;-19
2020/12/22 23:20:05;;;;;;;2.17;1.82;;;;;;;11.18;100.00;98156.95;3782067;77;44426;-19
2020/12/22 23:25:12;;;;;;;2.83;2.50;;;;;;;11.16;100.00;98142.83;3771512;78;44026;-19
2020/12/22 23:30:18;;;;;;;4.13;2.80;;;;;;;11.10;100.00;98145.70;3701634;77;43384;-19
2020/12/22 23:35:25;;;;;;;3.77;2.87;;;;;;;11.06;100.00;98165.92;3695974;78;43393;-20
2020/12/22 23:40:31;;;;;;;3.70;2.83;;;;;;;11.02;100.00;98174.52;3734410;78;43712;-19
2020/12/22 23:45:37;;;;;;;3.72;3.02;;;;;;;10.96;100.00;98176.04;3714443;78;43985;-19
2020/12/22 23:50:43;;;;;;;3.95;3.27;;;;;;;10.96;100.00;98173.34;3686220;78;43421;-19